sensor_id;sensor_type;location;lat;lon;timestamp;temperature;humidity
2447;DHT22;26430;48.818;9.244;2022-12-11T00:02:08;-0.20;99.90
2447;DHT22;26430;48.818;9.244;2022-12-11T00:04:34;-0.10;99.90
2447;DHT22;26430;48.818;9.244;2022-12-11T00:07:00;0.00;99.90
2447;DHT22;26430;48.818;9.244;2022-12-11T00:09:25;0.00;99.90
2447;DHT22;26430;48.818;9.244;2022-12-11T00:11:51;0.00;99.90
2447;DHT22;26430;48.818;9.244;2022-12-11T00:14:17;0.00;99.90
2447;DHT22;26430;48.818;9.244;2022-12-11T00:16:43;0.00;99.90
2447;DHT22;26430;48.818;9.244;2022-12-11T00:19:08;0.00;99.90
2447;DHT22;26430;48.818;9.244;2022-12-11T00:21:34;0.00;99.90
2447;DHT22;26430;48.818;9.244;2022-12-11T00:24:00;0.00;99.90
2447;DHT22;26430;48.818;9.244;2022-12-11T00:26:26;0.00;99.90
2447;DHT22;26430;48.818;9.244;2022-12-11T00:28:54;-0.10;99.90
2447;DHT22;26430;48.818;9.244;2022-12-11T00:31:21;0.00;99.90
2447;DHT22;26430;48.818;9.244;2022-12-11T00:33:48;0.20;99.90
2447;DHT22;26430;48.818;9.244;2022-12-11T00:36:16;0.20;99.90
2447;DHT22;26430;48.818;9.244;2022-12-11T00:38:42;0.30;99.90
2447;DHT22;26430;48.818;9.244;2022-12-11T00:41:09;0.40;99.90
2447;DHT22;26430;48.818;9.244;2022-12-11T00:43:36;0.40;99.90
2447;DHT22;26430;48.818;9.244;2022-12-11T00:46:02;0.50;99.90
2447;DHT22;26430;48.818;9.244;2022-12-11T00:48:28;0.50;99.90
2447;DHT22;26430;48.818;9.244;2022-12-11T00:50:54;0.50;99.90
2447;DHT22;26430;48.818;9.244;2022-12-11T00:53:20;0.50;99.90
2447;DHT22;26430;48.818;9.244;2022-12-11T00:55:46;0.60;99.90
2447;DHT22;26430;48.818;9.244;2022-12-11T00:58:12;0.70;99.90
2447;DHT22;26430;48.818;9.244;2022-12-11T01:00:39;1.00;99.90
2447;DHT22;26430;48.818;9.244;2022-12-11T01:03:06;1.00;99.90
2447;DHT22;26430;48.818;9.244;2022-12-11T01:05:32;0.80;99.90
2447;DHT22;26430;48.818;9.244;2022-12-11T01:07:58;0.80;99.90
2447;DHT22;26430;48.818;9.244;2022-12-11T01:10:24;0.80;99.90
2447;DHT22;26430;48.818;9.244;2022-12-11T01:12:55;0.70;99.90
2447;DHT22;26430;48.818;9.244;2022-12-11T01:15:23;0.70;99.90
2447;DHT22;26430;48.818;9.244;2022-12-11T01:17:50;0.70;99.90
2447;DHT22;26430;48.818;9.244;2022-12-11T01:20:16;0.60;99.90
2447;DHT22;26430;48.818;9.244;2022-12-11T01:22:41;0.60;99.90
2447;DHT22;26430;48.818;9.244;2022-12-11T01:25:08;0.50;99.90
2447;DHT22;26430;48.818;9.244;2022-12-11T01:27:35;0.60;99.90
2447;DHT22;26430;48.818;9.244;2022-12-11T01:30:01;0.60;99.90
2447;DHT22;26430;48.818;9.244;2022-12-11T01:32:27;0.60;99.90
2447;DHT22;26430;48.818;9.244;2022-12-11T01:34:53;0.50;99.90
2447;DHT22;26430;48.818;9.244;2022-12-11T01:37:19;0.80;99.90
2447;DHT22;26430;48.818;9.244;2022-12-11T01:39:44;0.70;99.90
2447;DHT22;26430;48.818;9.244;2022-12-11T01:42:16;0.70;99.90
2447;DHT22;26430;48.818;9.244;2022-12-11T01:47:07;0.90;99.90
2447;DHT22;26430;48.818;9.244;2022-12-11T01:49:33;0.80;99.90
2447;DHT22;26430;48.818;9.244;2022-12-11T01:52:06;0.70;99.90
2447;DHT22;26430;48.818;9.244;2022-12-11T01:54:33;0.70;99.90
2447;DHT22;26430;48.818;9.244;2022-12-11T01:57:03;0.60;99.90
2447;DHT22;26430;48.818;9.244;2022-12-11T01:59:32;0.60;99.90
2447;DHT22;26430;48.818;9.244;2022-12-11T02:02:18;0.40;99.90
2447;DHT22;26430;48.818;9.244;2022-12-11T02:04:46;0.20;99.90
2447;DHT22;26430;48.818;9.244;2022-12-11T02:07:13;0.00;99.90
2447;DHT22;26430;48.818;9.244;2022-12-11T02:09:40;0.00;99.90
2447;DHT22;26430;48.818;9.244;2022-12-11T02:26:32;0.50;99.90
2447;DHT22;26430;48.818;9.244;2022-12-11T02:29:07;0.50;99.90
2447;DHT22;26430;48.818;9.244;2022-12-11T02:34:26;0.20;99.90
2447;DHT22;26430;48.818;9.244;2022-12-11T02:36:59;0.30;99.90
2447;DHT22;26430;48.818;9.244;2022-12-11T02:39:26;0.30;99.90
2447;DHT22;26430;48.818;9.244;2022-12-11T02:41:53;0.40;99.90
2447;DHT22;26430;48.818;9.244;2022-12-11T02:44:24;0.30;99.90
2447;DHT22;26430;48.818;9.244;2022-12-11T02:46:54;0.30;99.90
2447;DHT22;26430;48.818;9.244;2022-12-11T02:49:21;0.60;99.90
2447;DHT22;26430;48.818;9.244;2022-12-11T02:51:49;0.60;99.90
2447;DHT22;26430;48.818;9.244;2022-12-11T02:54:22;0.60;99.90
2447;DHT22;26430;48.818;9.244;2022-12-11T02:56:58;0.70;99.90
2447;DHT22;26430;48.818;9.244;2022-12-11T02:59:37;0.80;99.90
2447;DHT22;26430;48.818;9.244;2022-12-11T03:02:04;0.70;99.90
2447;DHT22;26430;48.818;9.244;2022-12-11T03:04:31;0.90;99.90
2447;DHT22;26430;48.818;9.244;2022-12-11T03:07:02;1.10;99.90
2447;DHT22;26430;48.818;9.244;2022-12-11T03:09:42;0.90;99.90
2447;DHT22;26430;48.818;9.244;2022-12-11T03:12:09;0.90;99.90
2447;DHT22;26430;48.818;9.244;2022-12-11T03:14:38;0.80;99.90
2447;DHT22;26430;48.818;9.244;2022-12-11T03:22:43;0.70;99.90
2447;DHT22;26430;48.818;9.244;2022-12-11T03:25:19;0.70;99.90
2447;DHT22;26430;48.818;9.244;2022-12-11T03:27:58;0.70;99.90
2447;DHT22;26430;48.818;9.244;2022-12-11T03:30:27;0.70;99.90
2447;DHT22;26430;48.818;9.244;2022-12-11T03:32:59;0.80;99.90
2447;DHT22;26430;48.818;9.244;2022-12-11T03:35:39;0.80;99.90
2447;DHT22;26430;48.818;9.244;2022-12-11T03:38:12;0.70;99.90
2447;DHT22;26430;48.818;9.244;2022-12-11T03:40:42;0.70;99.90
2447;DHT22;26430;48.818;9.244;2022-12-11T03:43:10;0.70;99.90
2447;DHT22;26430;48.818;9.244;2022-12-11T03:45:37;0.80;99.90
2447;DHT22;26430;48.818;9.244;2022-12-11T03:48:04;0.70;99.90
2447;DHT22;26430;48.818;9.244;2022-12-11T03:50:33;0.70;99.90
2447;DHT22;26430;48.818;9.244;2022-12-11T03:52:59;0.70;99.90
2447;DHT22;26430;48.818;9.244;2022-12-11T03:55:27;0.70;99.90
2447;DHT22;26430;48.818;9.244;2022-12-11T03:57:53;0.70;99.90
2447;DHT22;26430;48.818;9.244;2022-12-11T04:00:20;0.80;99.90
2447;DHT22;26430;48.818;9.244;2022-12-11T04:02:46;0.80;99.90
2447;DHT22;26430;48.818;9.244;2022-12-11T04:05:32;0.70;99.90
2447;DHT22;26430;48.818;9.244;2022-12-11T04:07:57;0.60;99.90
2447;DHT22;26430;48.818;9.244;2022-12-11T04:10:23;0.20;99.90
2447;DHT22;26430;48.818;9.244;2022-12-11T04:12:48;0.20;99.90
2447;DHT22;26430;48.818;9.244;2022-12-11T04:15:14;0.30;99.90
2447;DHT22;26430;48.818;9.244;2022-12-11T04:17:40;0.40;99.90
2447;DHT22;26430;48.818;9.244;2022-12-11T04:20:24;0.40;99.90
2447;DHT22;26430;48.818;9.244;2022-12-11T04:23:13;0.50;99.90
2447;DHT22;26430;48.818;9.244;2022-12-11T04:26:12;0.30;99.90
2447;DHT22;26430;48.818;9.244;2022-12-11T04:28:39;-0.30;99.90
2447;DHT22;26430;48.818;9.244;2022-12-11T04:31:05;-0.50;99.90
2447;DHT22;26430;48.818;9.244;2022-12-11T04:33:35;-0.50;99.90
2447;DHT22;26430;48.818;9.244;2022-12-11T04:36:00;-0.70;99.90
2447;DHT22;26430;48.818;9.244;2022-12-11T04:38:26;-0.70;99.90
2447;DHT22;26430;48.818;9.244;2022-12-11T04:40:59;-0.60;99.90
2447;DHT22;26430;48.818;9.244;2022-12-11T04:43:25;-0.60;99.90
2447;DHT22;26430;48.818;9.244;2022-12-11T04:46:08;-0.50;99.90
2447;DHT22;26430;48.818;9.244;2022-12-11T04:48:35;-0.50;99.90
2447;DHT22;26430;48.818;9.244;2022-12-11T04:51:01;-0.60;99.90
2447;DHT22;26430;48.818;9.244;2022-12-11T04:53:27;-0.60;99.90
2447;DHT22;26430;48.818;9.244;2022-12-11T04:55:53;-0.50;99.90
2447;DHT22;26430;48.818;9.244;2022-12-11T04:58:19;-0.50;99.90
2447;DHT22;26430;48.818;9.244;2022-12-11T05:00:44;-0.60;99.90
2447;DHT22;26430;48.818;9.244;2022-12-11T05:03:11;-0.30;99.90
2447;DHT22;26430;48.818;9.244;2022-12-11T05:05:37;-0.20;99.90
2447;DHT22;26430;48.818;9.244;2022-12-11T05:08:03;-0.10;99.90
2447;DHT22;26430;48.818;9.244;2022-12-11T05:10:29;0.00;99.90
2447;DHT22;26430;48.818;9.244;2022-12-11T05:12:55;0.10;99.90
2447;DHT22;26430;48.818;9.244;2022-12-11T05:15:21;0.10;99.90
2447;DHT22;26430;48.818;9.244;2022-12-11T05:17:46;0.20;99.90
2447;DHT22;26430;48.818;9.244;2022-12-11T05:20:12;0.00;99.90
2447;DHT22;26430;48.818;9.244;2022-12-11T05:22:38;-0.40;99.90
2447;DHT22;26430;48.818;9.244;2022-12-11T05:25:04;-0.40;99.90
2447;DHT22;26430;48.818;9.244;2022-12-11T05:27:30;-0.30;99.90
2447;DHT22;26430;48.818;9.244;2022-12-11T05:29:56;-0.30;99.90
2447;DHT22;26430;48.818;9.244;2022-12-11T05:32:22;-0.10;99.90
2447;DHT22;26430;48.818;9.244;2022-12-11T05:34:49;-0.10;99.90
2447;DHT22;26430;48.818;9.244;2022-12-11T05:37:15;-0.10;99.90
2447;DHT22;26430;48.818;9.244;2022-12-11T05:39:40;0.00;99.90
2447;DHT22;26430;48.818;9.244;2022-12-11T05:42:06;0.10;99.90
2447;DHT22;26430;48.818;9.244;2022-12-11T05:44:32;-0.10;99.90
2447;DHT22;26430;48.818;9.244;2022-12-11T05:46:58;-0.10;99.90
2447;DHT22;26430;48.818;9.244;2022-12-11T05:49:24;-0.10;99.90
2447;DHT22;26430;48.818;9.244;2022-12-11T05:51:49;0.00;99.90
2447;DHT22;26430;48.818;9.244;2022-12-11T05:54:15;-0.10;99.90
2447;DHT22;26430;48.818;9.244;2022-12-11T05:56:41;0.00;99.90
2447;DHT22;26430;48.818;9.244;2022-12-11T05:59:07;0.30;99.90
2447;DHT22;26430;48.818;9.244;2022-12-11T06:01:38;0.40;99.90
2447;DHT22;26430;48.818;9.244;2022-12-11T06:04:05;0.50;99.90
2447;DHT22;26430;48.818;9.244;2022-12-11T06:06:32;0.30;99.90
2447;DHT22;26430;48.818;9.244;2022-12-11T06:08:58;0.30;99.90
2447;DHT22;26430;48.818;9.244;2022-12-11T06:11:26;0.20;99.90
2447;DHT22;26430;48.818;9.244;2022-12-11T06:13:53;0.10;99.90
2447;DHT22;26430;48.818;9.244;2022-12-11T06:16:20;0.20;99.90
2447;DHT22;26430;48.818;9.244;2022-12-11T06:18:46;0.10;99.90
2447;DHT22;26430;48.818;9.244;2022-12-11T06:21:12;0.00;99.90
2447;DHT22;26430;48.818;9.244;2022-12-11T06:23:39;-0.20;99.90
2447;DHT22;26430;48.818;9.244;2022-12-11T06:26:05;-0.30;99.90
2447;DHT22;26430;48.818;9.244;2022-12-11T06:28:31;-0.40;99.90
2447;DHT22;26430;48.818;9.244;2022-12-11T06:31:00;-0.40;99.90
2447;DHT22;26430;48.818;9.244;2022-12-11T06:33:26;-0.40;99.90
2447;DHT22;26430;48.818;9.244;2022-12-11T06:35:51;-0.50;99.90
2447;DHT22;26430;48.818;9.244;2022-12-11T06:38:17;-0.50;99.90
2447;DHT22;26430;48.818;9.244;2022-12-11T06:40:43;-0.50;99.90
2447;DHT22;26430;48.818;9.244;2022-12-11T06:43:09;-0.60;99.90
2447;DHT22;26430;48.818;9.244;2022-12-11T06:45:36;-0.70;99.90
2447;DHT22;26430;48.818;9.244;2022-12-11T06:48:02;-0.70;99.90
2447;DHT22;26430;48.818;9.244;2022-12-11T06:50:28;-0.80;99.90
2447;DHT22;26430;48.818;9.244;2022-12-11T06:52:55;-0.90;99.90
2447;DHT22;26430;48.818;9.244;2022-12-11T06:55:21;-1.00;99.90
2447;DHT22;26430;48.818;9.244;2022-12-11T06:57:47;-0.90;99.90
2447;DHT22;26430;48.818;9.244;2022-12-11T07:00:13;-0.80;99.90
2447;DHT22;26430;48.818;9.244;2022-12-11T07:02:39;-0.70;99.90
2447;DHT22;26430;48.818;9.244;2022-12-11T07:05:05;-0.70;99.90
2447;DHT22;26430;48.818;9.244;2022-12-11T07:07:31;-0.60;99.90
2447;DHT22;26430;48.818;9.244;2022-12-11T07:09:56;-0.40;99.90
2447;DHT22;26430;48.818;9.244;2022-12-11T07:12:22;-0.30;99.90
2447;DHT22;26430;48.818;9.244;2022-12-11T07:14:48;-0.20;99.90
2447;DHT22;26430;48.818;9.244;2022-12-11T07:17:13;-0.20;99.90
2447;DHT22;26430;48.818;9.244;2022-12-11T07:19:39;-0.10;99.90
2447;DHT22;26430;48.818;9.244;2022-12-11T07:22:05;-0.10;99.90
2447;DHT22;26430;48.818;9.244;2022-12-11T07:24:31;0.10;99.90
2447;DHT22;26430;48.818;9.244;2022-12-11T07:26:57;0.20;99.90
2447;DHT22;26430;48.818;9.244;2022-12-11T07:29:22;0.20;99.90
2447;DHT22;26430;48.818;9.244;2022-12-11T07:31:48;0.10;99.90
2447;DHT22;26430;48.818;9.244;2022-12-11T07:34:14;0.00;99.90
2447;DHT22;26430;48.818;9.244;2022-12-11T07:36:40;0.00;99.90
2447;DHT22;26430;48.818;9.244;2022-12-11T07:39:06;0.10;99.90
2447;DHT22;26430;48.818;9.244;2022-12-11T07:41:32;0.20;99.90
2447;DHT22;26430;48.818;9.244;2022-12-11T07:43:58;0.20;99.90
2447;DHT22;26430;48.818;9.244;2022-12-11T07:46:26;0.10;99.90
2447;DHT22;26430;48.818;9.244;2022-12-11T07:48:52;0.00;99.90
2447;DHT22;26430;48.818;9.244;2022-12-11T07:53:48;0.00;99.90
2447;DHT22;26430;48.818;9.244;2022-12-11T07:56:15;0.10;99.90
2447;DHT22;26430;48.818;9.244;2022-12-11T07:58:41;0.10;99.90
2447;DHT22;26430;48.818;9.244;2022-12-11T08:01:12;0.10;99.90
2447;DHT22;26430;48.818;9.244;2022-12-11T08:03:38;0.20;99.90
2447;DHT22;26430;48.818;9.244;2022-12-11T08:06:04;0.30;99.90
2447;DHT22;26430;48.818;9.244;2022-12-11T08:08:31;0.30;99.90
2447;DHT22;26430;48.818;9.244;2022-12-11T08:11:00;0.30;99.90
2447;DHT22;26430;48.818;9.244;2022-12-11T08:13:26;0.60;99.90
2447;DHT22;26430;48.818;9.244;2022-12-11T08:15:52;0.90;99.90
2447;DHT22;26430;48.818;9.244;2022-12-11T08:18:17;0.80;99.90
2447;DHT22;26430;48.818;9.244;2022-12-11T08:20:43;0.90;99.90
2447;DHT22;26430;48.818;9.244;2022-12-11T08:23:09;0.80;99.90
2447;DHT22;26430;48.818;9.244;2022-12-11T08:25:34;0.80;99.90
2447;DHT22;26430;48.818;9.244;2022-12-11T08:28:00;0.80;99.90
2447;DHT22;26430;48.818;9.244;2022-12-11T08:30:26;0.80;99.90
2447;DHT22;26430;48.818;9.244;2022-12-11T08:32:52;0.90;99.90
2447;DHT22;26430;48.818;9.244;2022-12-11T08:35:41;0.90;99.90
2447;DHT22;26430;48.818;9.244;2022-12-11T08:38:08;0.90;99.90
2447;DHT22;26430;48.818;9.244;2022-12-11T08:40:34;0.80;99.90
2447;DHT22;26430;48.818;9.244;2022-12-11T08:42:59;0.90;99.90
2447;DHT22;26430;48.818;9.244;2022-12-11T08:45:25;1.00;99.90
2447;DHT22;26430;48.818;9.244;2022-12-11T08:47:51;1.00;99.90
2447;DHT22;26430;48.818;9.244;2022-12-11T08:50:19;0.90;99.90
2447;DHT22;26430;48.818;9.244;2022-12-11T08:52:44;1.10;99.90
2447;DHT22;26430;48.818;9.244;2022-12-11T08:55:10;1.10;99.90
2447;DHT22;26430;48.818;9.244;2022-12-11T08:57:37;1.20;99.90
2447;DHT22;26430;48.818;9.244;2022-12-11T09:00:06;1.40;99.90
2447;DHT22;26430;48.818;9.244;2022-12-11T09:02:33;1.20;99.90
2447;DHT22;26430;48.818;9.244;2022-12-11T09:04:58;0.80;99.90
2447;DHT22;26430;48.818;9.244;2022-12-11T09:07:24;0.50;99.90
2447;DHT22;26430;48.818;9.244;2022-12-11T09:09:53;0.20;99.90
2447;DHT22;26430;48.818;9.244;2022-12-11T09:12:19;0.30;99.90
2447;DHT22;26430;48.818;9.244;2022-12-11T09:14:44;0.00;99.90
2447;DHT22;26430;48.818;9.244;2022-12-11T09:17:10;-0.20;99.90
2447;DHT22;26430;48.818;9.244;2022-12-11T09:19:36;-0.10;99.90
2447;DHT22;26430;48.818;9.244;2022-12-11T09:22:01;0.00;99.90
2447;DHT22;26430;48.818;9.244;2022-12-11T09:24:27;-0.10;99.90
2447;DHT22;26430;48.818;9.244;2022-12-11T09:26:53;-0.10;99.90
2447;DHT22;26430;48.818;9.244;2022-12-11T09:29:19;-0.20;99.90
2447;DHT22;26430;48.818;9.244;2022-12-11T09:31:45;-0.20;99.90
2447;DHT22;26430;48.818;9.244;2022-12-11T09:34:12;-0.50;99.90
2447;DHT22;26430;48.818;9.244;2022-12-11T09:36:40;-0.60;99.90
2447;DHT22;26430;48.818;9.244;2022-12-11T09:39:07;-0.50;99.90
2447;DHT22;26430;48.818;9.244;2022-12-11T09:47:16;0.10;99.90
2447;DHT22;26430;48.818;9.244;2022-12-11T09:49:45;0.10;99.90
2447;DHT22;26430;48.818;9.244;2022-12-11T09:54:49;0.50;99.90
2447;DHT22;26430;48.818;9.244;2022-12-11T10:00:21;0.40;99.90
2447;DHT22;26430;48.818;9.244;2022-12-11T10:08:38;0.30;99.90
2447;DHT22;26430;48.818;9.244;2022-12-11T10:17:24;0.50;99.90
2447;DHT22;26430;48.818;9.244;2022-12-11T10:19:52;0.80;99.90
2447;DHT22;26430;48.818;9.244;2022-12-11T10:22:22;0.50;99.90
2447;DHT22;26430;48.818;9.244;2022-12-11T10:24:58;0.30;99.90
2447;DHT22;26430;48.818;9.244;2022-12-11T10:27:31;0.50;99.90
2447;DHT22;26430;48.818;9.244;2022-12-11T10:30:18;0.50;99.90
2447;DHT22;26430;48.818;9.244;2022-12-11T10:35:19;0.90;99.90
2447;DHT22;26430;48.818;9.244;2022-12-11T10:37:45;0.80;99.90
2447;DHT22;26430;48.818;9.244;2022-12-11T10:40:12;0.90;99.90
2447;DHT22;26430;48.818;9.244;2022-12-11T10:42:38;0.70;99.90
2447;DHT22;26430;48.818;9.244;2022-12-11T10:45:04;0.70;99.90
2447;DHT22;26430;48.818;9.244;2022-12-11T10:47:30;0.70;99.90
2447;DHT22;26430;48.818;9.244;2022-12-11T10:50:02;0.20;99.90
2447;DHT22;26430;48.818;9.244;2022-12-11T10:55:02;0.70;99.90
2447;DHT22;26430;48.818;9.244;2022-12-11T10:57:31;0.80;99.90
2447;DHT22;26430;48.818;9.244;2022-12-11T10:59:57;0.40;99.90
2447;DHT22;26430;48.818;9.244;2022-12-11T11:02:31;0.70;99.90
2447;DHT22;26430;48.818;9.244;2022-12-11T11:05:02;1.00;99.90
2447;DHT22;26430;48.818;9.244;2022-12-11T11:07:35;0.90;99.90
2447;DHT22;26430;48.818;9.244;2022-12-11T11:10:18;1.20;99.90
2447;DHT22;26430;48.818;9.244;2022-12-11T11:12:48;1.10;99.90
2447;DHT22;26430;48.818;9.244;2022-12-11T11:15:21;0.90;99.90
2447;DHT22;26430;48.818;9.244;2022-12-11T11:17:54;1.40;99.90
2447;DHT22;26430;48.818;9.244;2022-12-11T11:20:23;1.40;99.90
2447;DHT22;26430;48.818;9.244;2022-12-11T11:22:51;1.40;99.90
2447;DHT22;26430;48.818;9.244;2022-12-11T11:25:20;1.30;99.90
2447;DHT22;26430;48.818;9.244;2022-12-11T11:27:59;1.60;99.90
2447;DHT22;26430;48.818;9.244;2022-12-11T11:30:30;1.70;99.90
2447;DHT22;26430;48.818;9.244;2022-12-11T11:33:01;1.70;99.90
2447;DHT22;26430;48.818;9.244;2022-12-11T11:35:30;1.80;99.90
2447;DHT22;26430;48.818;9.244;2022-12-11T11:38:27;1.90;99.90
2447;DHT22;26430;48.818;9.244;2022-12-11T11:41:10;1.90;99.90
2447;DHT22;26430;48.818;9.244;2022-12-11T11:44:12;1.00;99.90
2447;DHT22;26430;48.818;9.244;2022-12-11T11:47:12;1.00;99.90
2447;DHT22;26430;48.818;9.244;2022-12-11T11:50:03;0.80;99.90
2447;DHT22;26430;48.818;9.244;2022-12-11T11:52:50;0.90;99.90
2447;DHT22;26430;48.818;9.244;2022-12-11T11:55:26;1.20;99.90
2447;DHT22;26430;48.818;9.244;2022-12-11T11:58:14;1.40;99.90
2447;DHT22;26430;48.818;9.244;2022-12-11T12:00:42;1.40;99.90
2447;DHT22;26430;48.818;9.244;2022-12-11T12:03:16;1.20;99.90
2447;DHT22;26430;48.818;9.244;2022-12-11T12:06:03;1.10;99.90
2447;DHT22;26430;48.818;9.244;2022-12-11T12:09:15;1.20;99.90
2447;DHT22;26430;48.818;9.244;2022-12-11T12:14:43;1.30;99.90
2447;DHT22;26430;48.818;9.244;2022-12-11T12:34:20;1.80;99.90
2447;DHT22;26430;48.818;9.244;2022-12-11T12:37:25;1.80;99.90
2447;DHT22;26430;48.818;9.244;2022-12-11T12:48:25;2.50;99.90
2447;DHT22;26430;48.818;9.244;2022-12-11T12:50:51;2.60;99.90
2447;DHT22;26430;48.818;9.244;2022-12-11T12:53:20;2.60;99.90
2447;DHT22;26430;48.818;9.244;2022-12-11T12:55:48;2.50;99.90
2447;DHT22;26430;48.818;9.244;2022-12-11T12:58:42;2.50;99.90
2447;DHT22;26430;48.818;9.244;2022-12-11T13:01:18;2.60;99.90
2447;DHT22;26430;48.818;9.244;2022-12-11T13:04:06;2.70;99.90
2447;DHT22;26430;48.818;9.244;2022-12-11T13:06:36;2.70;99.90
2447;DHT22;26430;48.818;9.244;2022-12-11T13:09:21;2.80;99.90
2447;DHT22;26430;48.818;9.244;2022-12-11T13:11:49;2.90;99.90
2447;DHT22;26430;48.818;9.244;2022-12-11T13:16:45;2.80;99.90
2447;DHT22;26430;48.818;9.244;2022-12-11T13:19:33;2.70;99.90
2447;DHT22;26430;48.818;9.244;2022-12-11T13:24:58;2.50;99.90
2447;DHT22;26430;48.818;9.244;2022-12-11T13:27:35;2.50;99.90
2447;DHT22;26430;48.818;9.244;2022-12-11T13:35:24;2.70;99.90
2447;DHT22;26430;48.818;9.244;2022-12-11T13:37:51;2.40;99.90
2447;DHT22;26430;48.818;9.244;2022-12-11T13:40:41;2.50;99.90
2447;DHT22;26430;48.818;9.244;2022-12-11T13:43:19;2.60;99.90
2447;DHT22;26430;48.818;9.244;2022-12-11T13:45:50;2.50;99.90
2447;DHT22;26430;48.818;9.244;2022-12-11T13:48:23;2.40;99.90
2447;DHT22;26430;48.818;9.244;2022-12-11T13:50:51;2.30;99.90
2447;DHT22;26430;48.818;9.244;2022-12-11T13:53:19;2.40;99.90
2447;DHT22;26430;48.818;9.244;2022-12-11T13:55:45;2.60;99.90
2447;DHT22;26430;48.818;9.244;2022-12-11T13:58:18;2.50;99.90
2447;DHT22;26430;48.818;9.244;2022-12-11T14:03:32;2.10;99.90
2447;DHT22;26430;48.818;9.244;2022-12-11T14:06:00;2.10;99.90
2447;DHT22;26430;48.818;9.244;2022-12-11T14:08:32;2.10;99.90
2447;DHT22;26430;48.818;9.244;2022-12-11T14:10:58;2.00;99.90
2447;DHT22;26430;48.818;9.244;2022-12-11T14:13:35;1.90;99.90
2447;DHT22;26430;48.818;9.244;2022-12-11T14:16:02;1.90;99.90
2447;DHT22;26430;48.818;9.244;2022-12-11T14:18:30;1.90;99.90
2447;DHT22;26430;48.818;9.244;2022-12-11T14:20:58;1.80;99.90
2447;DHT22;26430;48.818;9.244;2022-12-11T14:23:30;1.80;99.90
2447;DHT22;26430;48.818;9.244;2022-12-11T14:26:02;1.70;99.90
2447;DHT22;26430;48.818;9.244;2022-12-11T14:28:35;1.80;99.90
2447;DHT22;26430;48.818;9.244;2022-12-11T14:31:02;1.80;99.90
2447;DHT22;26430;48.818;9.244;2022-12-11T14:33:32;1.90;99.90
2447;DHT22;26430;48.818;9.244;2022-12-11T14:35:59;1.70;99.90
2447;DHT22;26430;48.818;9.244;2022-12-11T14:38:33;1.60;99.90
2447;DHT22;26430;48.818;9.244;2022-12-11T14:41:20;1.60;99.90
2447;DHT22;26430;48.818;9.244;2022-12-11T14:43:50;1.50;99.90
2447;DHT22;26430;48.818;9.244;2022-12-11T14:46:22;1.60;99.90
2447;DHT22;26430;48.818;9.244;2022-12-11T14:49:00;1.60;99.90
2447;DHT22;26430;48.818;9.244;2022-12-11T14:51:34;1.50;99.90
2447;DHT22;26430;48.818;9.244;2022-12-11T14:54:01;1.40;99.90
2447;DHT22;26430;48.818;9.244;2022-12-11T14:56:28;1.30;99.90
2447;DHT22;26430;48.818;9.244;2022-12-11T14:58:58;1.20;99.90
2447;DHT22;26430;48.818;9.244;2022-12-11T15:01:28;1.00;99.90
2447;DHT22;26430;48.818;9.244;2022-12-11T15:04:04;0.90;99.90
2447;DHT22;26430;48.818;9.244;2022-12-11T15:06:34;0.80;99.90
2447;DHT22;26430;48.818;9.244;2022-12-11T15:12:11;0.80;99.90
2447;DHT22;26430;48.818;9.244;2022-12-11T15:14:50;0.80;99.90
2447;DHT22;26430;48.818;9.244;2022-12-11T15:17:16;0.80;99.90
2447;DHT22;26430;48.818;9.244;2022-12-11T15:22:45;0.70;99.90
2447;DHT22;26430;48.818;9.244;2022-12-11T15:25:22;0.70;99.90
2447;DHT22;26430;48.818;9.244;2022-12-11T15:27:53;0.60;99.90
2447;DHT22;26430;48.818;9.244;2022-12-11T15:35:36;0.90;99.90
2447;DHT22;26430;48.818;9.244;2022-12-11T15:38:03;0.90;99.90
2447;DHT22;26430;48.818;9.244;2022-12-11T15:40:28;1.00;99.90
2447;DHT22;26430;48.818;9.244;2022-12-11T15:42:55;1.20;99.90
2447;DHT22;26430;48.818;9.244;2022-12-11T15:45:23;1.10;99.90
2447;DHT22;26430;48.818;9.244;2022-12-11T15:47:50;1.10;99.90
2447;DHT22;26430;48.818;9.244;2022-12-11T15:50:20;1.10;99.90
2447;DHT22;26430;48.818;9.244;2022-12-11T15:52:46;1.10;99.90
2447;DHT22;26430;48.818;9.244;2022-12-11T15:55:13;1.20;99.90
2447;DHT22;26430;48.818;9.244;2022-12-11T15:57:44;1.40;99.90
2447;DHT22;26430;48.818;9.244;2022-12-11T16:00:14;1.20;99.90
2447;DHT22;26430;48.818;9.244;2022-12-11T16:02:40;0.90;99.90
2447;DHT22;26430;48.818;9.244;2022-12-11T16:05:06;0.90;99.90
2447;DHT22;26430;48.818;9.244;2022-12-11T16:07:33;0.80;99.90
2447;DHT22;26430;48.818;9.244;2022-12-11T16:09:59;0.80;99.90
2447;DHT22;26430;48.818;9.244;2022-12-11T16:12:24;0.80;99.90
2447;DHT22;26430;48.818;9.244;2022-12-11T16:14:50;0.80;99.90
2447;DHT22;26430;48.818;9.244;2022-12-11T16:17:16;0.80;99.90
2447;DHT22;26430;48.818;9.244;2022-12-11T16:19:42;0.80;99.90
2447;DHT22;26430;48.818;9.244;2022-12-11T16:22:09;0.80;99.90
2447;DHT22;26430;48.818;9.244;2022-12-11T16:24:36;0.80;99.90
2447;DHT22;26430;48.818;9.244;2022-12-11T16:27:03;0.70;99.90
2447;DHT22;26430;48.818;9.244;2022-12-11T16:29:33;0.70;99.90
2447;DHT22;26430;48.818;9.244;2022-12-11T16:31:59;0.70;99.90
2447;DHT22;26430;48.818;9.244;2022-12-11T16:34:25;0.60;99.90
2447;DHT22;26430;48.818;9.244;2022-12-11T16:36:51;0.60;99.90
2447;DHT22;26430;48.818;9.244;2022-12-11T16:39:17;0.50;99.90
2447;DHT22;26430;48.818;9.244;2022-12-11T16:41:43;0.50;99.90
2447;DHT22;26430;48.818;9.244;2022-12-11T16:44:08;0.60;99.90
2447;DHT22;26430;48.818;9.244;2022-12-11T16:46:35;0.60;99.90
2447;DHT22;26430;48.818;9.244;2022-12-11T16:49:00;0.50;99.90
2447;DHT22;26430;48.818;9.244;2022-12-11T16:51:26;0.50;99.90
2447;DHT22;26430;48.818;9.244;2022-12-11T16:53:52;0.50;99.90
2447;DHT22;26430;48.818;9.244;2022-12-11T16:56:18;0.40;99.90
2447;DHT22;26430;48.818;9.244;2022-12-11T16:58:43;0.40;99.90
2447;DHT22;26430;48.818;9.244;2022-12-11T17:01:13;0.30;99.90
2447;DHT22;26430;48.818;9.244;2022-12-11T17:03:40;0.30;99.90
2447;DHT22;26430;48.818;9.244;2022-12-11T17:06:08;0.30;99.90
2447;DHT22;26430;48.818;9.244;2022-12-11T17:08:35;0.20;99.90
2447;DHT22;26430;48.818;9.244;2022-12-11T17:11:04;0.20;99.90
2447;DHT22;26430;48.818;9.244;2022-12-11T17:13:31;0.20;99.90
2447;DHT22;26430;48.818;9.244;2022-12-11T17:15:57;0.30;99.90
2447;DHT22;26430;48.818;9.244;2022-12-11T17:18:22;0.30;99.90
2447;DHT22;26430;48.818;9.244;2022-12-11T17:20:48;0.30;99.90
2447;DHT22;26430;48.818;9.244;2022-12-11T17:23:14;0.30;99.90
2447;DHT22;26430;48.818;9.244;2022-12-11T17:25:43;0.30;99.90
2447;DHT22;26430;48.818;9.244;2022-12-11T17:28:11;0.30;99.90
2447;DHT22;26430;48.818;9.244;2022-12-11T17:30:44;0.30;99.90
2447;DHT22;26430;48.818;9.244;2022-12-11T17:33:11;0.30;99.90
2447;DHT22;26430;48.818;9.244;2022-12-11T17:35:37;0.40;99.90
2447;DHT22;26430;48.818;9.244;2022-12-11T17:38:03;0.50;99.90
2447;DHT22;26430;48.818;9.244;2022-12-11T17:40:29;0.70;99.90
2447;DHT22;26430;48.818;9.244;2022-12-11T17:42:55;0.80;99.90
2447;DHT22;26430;48.818;9.244;2022-12-11T17:45:21;0.80;99.90
2447;DHT22;26430;48.818;9.244;2022-12-11T17:47:46;1.00;99.90
2447;DHT22;26430;48.818;9.244;2022-12-11T17:50:12;1.00;99.90
2447;DHT22;26430;48.818;9.244;2022-12-11T17:52:38;0.90;99.90
2447;DHT22;26430;48.818;9.244;2022-12-11T17:55:05;0.70;99.90
2447;DHT22;26430;48.818;9.244;2022-12-11T17:57:31;0.60;99.90
2447;DHT22;26430;48.818;9.244;2022-12-11T17:59:57;0.50;99.90
2447;DHT22;26430;48.818;9.244;2022-12-11T18:02:23;0.40;99.90